sensor_id;sensor_type;location;lat;lon;timestamp;P1;durP1;ratioP1;P2;durP2;ratioP2
58842;SDS011;44614;54.356;10.100;2023-05-03T00:00:23;4.10;;;1.67;;
58842;SDS011;44614;54.356;10.100;2023-05-03T00:05:18;6.70;;;1.98;;
58842;SDS011;44614;54.356;10.100;2023-05-03T00:07:44;3.10;;;1.40;;
58842;SDS011;44614;54.356;10.100;2023-05-03T00:10:11;3.03;;;1.52;;
58842;SDS011;44614;54.356;10.100;2023-05-03T00:12:43;5.32;;;2.00;;
58842;SDS011;44614;54.356;10.100;2023-05-03T00:15:09;4.63;;;1.48;;
58842;SDS011;44614;54.356;10.100;2023-05-03T00:17:35;6.23;;;2.10;;
58842;SDS011;44614;54.356;10.100;2023-05-03T00:20:02;5.45;;;2.17;;
58842;SDS011;44614;54.356;10.100;2023-05-03T00:22:28;3.15;;;1.70;;
58842;SDS011;44614;54.356;10.100;2023-05-03T00:24:54;5.97;;;2.22;;
58842;SDS011;44614;54.356;10.100;2023-05-03T00:27:20;3.22;;;1.95;;
58842;SDS011;44614;54.356;10.100;2023-05-03T00:29:46;6.10;;;1.40;;
58842;SDS011;44614;54.356;10.100;2023-05-03T00:32:11;4.63;;;2.53;;
58842;SDS011;44614;54.356;10.100;2023-05-03T00:34:37;4.95;;;1.95;;
58842;SDS011;44614;54.356;10.100;2023-05-03T00:37:02;3.20;;;2.00;;
58842;SDS011;44614;54.356;10.100;2023-05-03T00:39:30;5.47;;;1.92;;
58842;SDS011;44614;54.356;10.100;2023-05-03T00:41:56;8.05;;;2.53;;
58842;SDS011;44614;54.356;10.100;2023-05-03T00:44:25;3.72;;;2.33;;
58842;SDS011;44614;54.356;10.100;2023-05-03T00:46:50;7.10;;;2.17;;
58842;SDS011;44614;54.356;10.100;2023-05-03T00:49:16;5.68;;;2.67;;
58842;SDS011;44614;54.356;10.100;2023-05-03T00:51:42;4.88;;;2.30;;
58842;SDS011;44614;54.356;10.100;2023-05-03T00:54:07;5.15;;;2.70;;
58842;SDS011;44614;54.356;10.100;2023-05-03T00:56:33;4.80;;;2.03;;
58842;SDS011;44614;54.356;10.100;2023-05-03T00:58:59;4.55;;;1.85;;
58842;SDS011;44614;54.356;10.100;2023-05-03T01:01:25;4.18;;;1.73;;
58842;SDS011;44614;54.356;10.100;2023-05-03T01:03:52;3.70;;;1.55;;
58842;SDS011;44614;54.356;10.100;2023-05-03T01:06:28;3.90;;;1.85;;
58842;SDS011;44614;54.356;10.100;2023-05-03T01:11:47;9.85;;;2.30;;
58842;SDS011;44614;54.356;10.100;2023-05-03T01:14:30;4.93;;;1.75;;
58842;SDS011;44614;54.356;10.100;2023-05-03T01:17:03;5.38;;;2.15;;
58842;SDS011;44614;54.356;10.100;2023-05-03T01:19:35;6.70;;;3.75;;
58842;SDS011;44614;54.356;10.100;2023-05-03T01:22:16;6.38;;;2.67;;
58842;SDS011;44614;54.356;10.100;2023-05-03T01:24:58;8.23;;;2.38;;
58842;SDS011;44614;54.356;10.100;2023-05-03T01:27:27;4.25;;;2.00;;
58842;SDS011;44614;54.356;10.100;2023-05-03T01:29:52;2.20;;;1.25;;
58842;SDS011;44614;54.356;10.100;2023-05-03T01:32:18;8.53;;;2.30;;
58842;SDS011;44614;54.356;10.100;2023-05-03T01:35:14;11.15;;;2.45;;
58842;SDS011;44614;54.356;10.100;2023-05-03T01:37:53;4.53;;;2.28;;
58842;SDS011;44614;54.356;10.100;2023-05-03T01:40:20;3.63;;;1.83;;
58842;SDS011;44614;54.356;10.100;2023-05-03T01:42:47;4.50;;;2.38;;
58842;SDS011;44614;54.356;10.100;2023-05-03T01:45:14;3.75;;;1.95;;
58842;SDS011;44614;54.356;10.100;2023-05-03T01:47:40;2.88;;;2.05;;
58842;SDS011;44614;54.356;10.100;2023-05-03T01:50:05;4.82;;;2.08;;
58842;SDS011;44614;54.356;10.100;2023-05-03T01:52:30;2.65;;;1.60;;
58842;SDS011;44614;54.356;10.100;2023-05-03T01:54:56;4.28;;;1.90;;
58842;SDS011;44614;54.356;10.100;2023-05-03T01:57:21;4.03;;;1.73;;
58842;SDS011;44614;54.356;10.100;2023-05-03T01:59:47;3.17;;;1.70;;
58842;SDS011;44614;54.356;10.100;2023-05-03T02:02:12;5.15;;;2.20;;
58842;SDS011;44614;54.356;10.100;2023-05-03T02:04:38;8.13;;;1.80;;
58842;SDS011;44614;54.356;10.100;2023-05-03T02:07:03;5.73;;;1.67;;
58842;SDS011;44614;54.356;10.100;2023-05-03T02:09:28;6.88;;;2.83;;
58842;SDS011;44614;54.356;10.100;2023-05-03T02:11:54;4.85;;;2.83;;
58842;SDS011;44614;54.356;10.100;2023-05-03T02:14:19;5.28;;;1.98;;
58842;SDS011;44614;54.356;10.100;2023-05-03T02:16:44;3.95;;;1.77;;
58842;SDS011;44614;54.356;10.100;2023-05-03T02:19:10;5.45;;;2.10;;
58842;SDS011;44614;54.356;10.100;2023-05-03T02:21:36;4.57;;;2.15;;
58842;SDS011;44614;54.356;10.100;2023-05-03T02:24:01;7.82;;;2.15;;
58842;SDS011;44614;54.356;10.100;2023-05-03T02:26:27;4.28;;;2.42;;
58842;SDS011;44614;54.356;10.100;2023-05-03T02:28:53;4.45;;;2.13;;
58842;SDS011;44614;54.356;10.100;2023-05-03T02:31:19;4.93;;;2.28;;
58842;SDS011;44614;54.356;10.100;2023-05-03T02:33:45;7.28;;;2.35;;
58842;SDS011;44614;54.356;10.100;2023-05-03T02:36:10;4.45;;;2.20;;
58842;SDS011;44614;54.356;10.100;2023-05-03T02:38:36;4.15;;;2.00;;
58842;SDS011;44614;54.356;10.100;2023-05-03T02:41:01;3.22;;;2.03;;
58842;SDS011;44614;54.356;10.100;2023-05-03T02:43:26;6.45;;;2.20;;
58842;SDS011;44614;54.356;10.100;2023-05-03T02:45:51;4.50;;;2.07;;
58842;SDS011;44614;54.356;10.100;2023-05-03T02:48:17;5.68;;;1.90;;
58842;SDS011;44614;54.356;10.100;2023-05-03T02:50:42;5.95;;;1.88;;
58842;SDS011;44614;54.356;10.100;2023-05-03T02:53:07;6.38;;;2.72;;
58842;SDS011;44614;54.356;10.100;2023-05-03T02:55:33;3.78;;;2.03;;
58842;SDS011;44614;54.356;10.100;2023-05-03T02:57:58;4.60;;;2.05;;
58842;SDS011;44614;54.356;10.100;2023-05-03T03:00:24;5.65;;;2.63;;
58842;SDS011;44614;54.356;10.100;2023-05-03T03:02:49;6.60;;;3.00;;
58842;SDS011;44614;54.356;10.100;2023-05-03T03:05:14;4.15;;;2.28;;
58842;SDS011;44614;54.356;10.100;2023-05-03T03:07:40;6.05;;;2.50;;
58842;SDS011;44614;54.356;10.100;2023-05-03T03:10:06;9.15;;;3.28;;
58842;SDS011;44614;54.356;10.100;2023-05-03T03:12:32;5.40;;;1.90;;
58842;SDS011;44614;54.356;10.100;2023-05-03T03:14:59;5.13;;;2.70;;
58842;SDS011;44614;54.356;10.100;2023-05-03T03:17:25;6.57;;;2.58;;
58842;SDS011;44614;54.356;10.100;2023-05-03T03:19:50;5.03;;;2.13;;
58842;SDS011;44614;54.356;10.100;2023-05-03T03:22:16;4.72;;;2.50;;
58842;SDS011;44614;54.356;10.100;2023-05-03T03:24:41;4.07;;;1.60;;
58842;SDS011;44614;54.356;10.100;2023-05-03T03:27:06;8.88;;;2.92;;
58842;SDS011;44614;54.356;10.100;2023-05-03T03:29:32;4.53;;;1.93;;
58842;SDS011;44614;54.356;10.100;2023-05-03T03:31:59;6.55;;;2.70;;
58842;SDS011;44614;54.356;10.100;2023-05-03T03:34:24;5.60;;;2.65;;
58842;SDS011;44614;54.356;10.100;2023-05-03T03:36:50;7.78;;;2.67;;
58842;SDS011;44614;54.356;10.100;2023-05-03T03:39:15;4.38;;;2.17;;
58842;SDS011;44614;54.356;10.100;2023-05-03T03:41:40;5.80;;;3.10;;
58842;SDS011;44614;54.356;10.100;2023-05-03T03:44:06;5.22;;;2.40;;
58842;SDS011;44614;54.356;10.100;2023-05-03T03:46:31;6.28;;;2.65;;
58842;SDS011;44614;54.356;10.100;2023-05-03T03:48:57;6.20;;;3.10;;
58842;SDS011;44614;54.356;10.100;2023-05-03T03:51:22;5.63;;;2.33;;
58842;SDS011;44614;54.356;10.100;2023-05-03T03:53:47;8.30;;;2.97;;
58842;SDS011;44614;54.356;10.100;2023-05-03T03:56:13;8.05;;;3.08;;
58842;SDS011;44614;54.356;10.100;2023-05-03T03:58:38;6.53;;;3.00;;
58842;SDS011;44614;54.356;10.100;2023-05-03T04:01:03;7.95;;;2.92;;
58842;SDS011;44614;54.356;10.100;2023-05-03T04:03:29;6.22;;;2.75;;
58842;SDS011;44614;54.356;10.100;2023-05-03T04:05:55;8.90;;;2.92;;
58842;SDS011;44614;54.356;10.100;2023-05-03T04:08:20;4.97;;;2.47;;
58842;SDS011;44614;54.356;10.100;2023-05-03T04:10:45;6.33;;;2.00;;
58842;SDS011;44614;54.356;10.100;2023-05-03T04:13:10;6.20;;;2.47;;
58842;SDS011;44614;54.356;10.100;2023-05-03T04:15:36;7.38;;;3.03;;
58842;SDS011;44614;54.356;10.100;2023-05-03T04:18:01;7.47;;;2.37;;
58842;SDS011;44614;54.356;10.100;2023-05-03T04:20:27;8.95;;;2.85;;
58842;SDS011;44614;54.356;10.100;2023-05-03T04:22:53;7.03;;;3.15;;
58842;SDS011;44614;54.356;10.100;2023-05-03T04:25:18;6.85;;;2.70;;
58842;SDS011;44614;54.356;10.100;2023-05-03T04:27:44;7.68;;;3.10;;
58842;SDS011;44614;54.356;10.100;2023-05-03T04:30:10;4.10;;;2.53;;
58842;SDS011;44614;54.356;10.100;2023-05-03T04:32:38;6.50;;;3.15;;
58842;SDS011;44614;54.356;10.100;2023-05-03T04:35:05;4.75;;;2.35;;
58842;SDS011;44614;54.356;10.100;2023-05-03T04:37:33;5.80;;;2.50;;
58842;SDS011;44614;54.356;10.100;2023-05-03T04:39:59;13.88;;;2.75;;
58842;SDS011;44614;54.356;10.100;2023-05-03T04:42:24;7.88;;;3.03;;
58842;SDS011;44614;54.356;10.100;2023-05-03T04:44:50;6.32;;;2.92;;
58842;SDS011;44614;54.356;10.100;2023-05-03T04:47:16;5.25;;;2.97;;
58842;SDS011;44614;54.356;10.100;2023-05-03T04:49:42;6.30;;;2.95;;
58842;SDS011;44614;54.356;10.100;2023-05-03T04:52:07;9.23;;;2.88;;
58842;SDS011;44614;54.356;10.100;2023-05-03T04:54:34;8.63;;;3.50;;
58842;SDS011;44614;54.356;10.100;2023-05-03T04:56:59;7.95;;;3.00;;
58842;SDS011;44614;54.356;10.100;2023-05-03T04:59:25;7.35;;;3.03;;
58842;SDS011;44614;54.356;10.100;2023-05-03T05:01:50;5.57;;;2.17;;
58842;SDS011;44614;54.356;10.100;2023-05-03T05:04:16;9.70;;;3.88;;
58842;SDS011;44614;54.356;10.100;2023-05-03T05:06:41;6.70;;;2.33;;
58842;SDS011;44614;54.356;10.100;2023-05-03T05:09:06;7.53;;;2.90;;
58842;SDS011;44614;54.356;10.100;2023-05-03T05:11:45;11.07;;;3.03;;
58842;SDS011;44614;54.356;10.100;2023-05-03T05:14:10;8.50;;;2.05;;
58842;SDS011;44614;54.356;10.100;2023-05-03T05:16:36;4.72;;;2.67;;
58842;SDS011;44614;54.356;10.100;2023-05-03T05:19:01;5.45;;;2.53;;
58842;SDS011;44614;54.356;10.100;2023-05-03T05:21:28;7.30;;;2.63;;
58842;SDS011;44614;54.356;10.100;2023-05-03T05:23:53;6.78;;;2.60;;
58842;SDS011;44614;54.356;10.100;2023-05-03T05:26:18;8.20;;;2.75;;
58842;SDS011;44614;54.356;10.100;2023-05-03T05:28:44;10.55;;;3.20;;
58842;SDS011;44614;54.356;10.100;2023-05-03T05:31:09;6.45;;;2.65;;
58842;SDS011;44614;54.356;10.100;2023-05-03T05:33:35;8.63;;;2.50;;
58842;SDS011;44614;54.356;10.100;2023-05-03T05:36:00;6.18;;;2.00;;
58842;SDS011;44614;54.356;10.100;2023-05-03T05:38:25;8.43;;;2.60;;
58842;SDS011;44614;54.356;10.100;2023-05-03T05:40:51;2.92;;;2.13;;
58842;SDS011;44614;54.356;10.100;2023-05-03T05:43:17;6.28;;;1.92;;
58842;SDS011;44614;54.356;10.100;2023-05-03T05:45:42;7.60;;;2.35;;
58842;SDS011;44614;54.356;10.100;2023-05-03T05:48:07;4.07;;;1.57;;
58842;SDS011;44614;54.356;10.100;2023-05-03T05:50:33;8.10;;;2.03;;
58842;SDS011;44614;54.356;10.100;2023-05-03T05:52:58;4.85;;;1.50;;
58842;SDS011;44614;54.356;10.100;2023-05-03T05:55:23;2.77;;;1.80;;
58842;SDS011;44614;54.356;10.100;2023-05-03T05:57:49;5.03;;;1.35;;
58842;SDS011;44614;54.356;10.100;2023-05-03T06:00:14;5.30;;;1.40;;
58842;SDS011;44614;54.356;10.100;2023-05-03T06:02:41;5.00;;;1.30;;
58842;SDS011;44614;54.356;10.100;2023-05-03T06:05:07;3.92;;;1.48;;
58842;SDS011;44614;54.356;10.100;2023-05-03T06:07:33;3.05;;;1.25;;
58842;SDS011;44614;54.356;10.100;2023-05-03T06:09:58;5.55;;;1.15;;
58842;SDS011;44614;54.356;10.100;2023-05-03T06:12:24;5.15;;;1.60;;
58842;SDS011;44614;54.356;10.100;2023-05-03T06:14:49;5.22;;;1.40;;
58842;SDS011;44614;54.356;10.100;2023-05-03T06:17:14;3.47;;;1.50;;
58842;SDS011;44614;54.356;10.100;2023-05-03T06:19:40;4.82;;;1.58;;
58842;SDS011;44614;54.356;10.100;2023-05-03T06:22:06;2.33;;;1.10;;
58842;SDS011;44614;54.356;10.100;2023-05-03T06:24:31;7.77;;;2.10;;
58842;SDS011;44614;54.356;10.100;2023-05-03T06:26:57;5.28;;;1.52;;
58842;SDS011;44614;54.356;10.100;2023-05-03T06:29:23;2.08;;;1.00;;
58842;SDS011;44614;54.356;10.100;2023-05-03T06:31:48;1.75;;;1.10;;
58842;SDS011;44614;54.356;10.100;2023-05-03T06:34:15;4.72;;;2.08;;
58842;SDS011;44614;54.356;10.100;2023-05-03T06:36:44;4.65;;;1.15;;
58842;SDS011;44614;54.356;10.100;2023-05-03T06:39:09;3.85;;;1.63;;
58842;SDS011;44614;54.356;10.100;2023-05-03T06:41:35;2.90;;;1.58;;
58842;SDS011;44614;54.356;10.100;2023-05-03T06:44:00;12.23;;;2.65;;
58842;SDS011;44614;54.356;10.100;2023-05-03T06:46:26;3.75;;;1.55;;
58842;SDS011;44614;54.356;10.100;2023-05-03T06:48:51;7.55;;;1.80;;
58842;SDS011;44614;54.356;10.100;2023-05-03T06:51:20;4.30;;;1.60;;
58842;SDS011;44614;54.356;10.100;2023-05-03T06:53:51;3.67;;;1.45;;
58842;SDS011;44614;54.356;10.100;2023-05-03T06:56:17;6.32;;;1.40;;
58842;SDS011;44614;54.356;10.100;2023-05-03T06:58:42;7.68;;;1.38;;
58842;SDS011;44614;54.356;10.100;2023-05-03T07:01:07;4.03;;;1.35;;
58842;SDS011;44614;54.356;10.100;2023-05-03T07:03:33;2.47;;;1.20;;
58842;SDS011;44614;54.356;10.100;2023-05-03T07:05:58;2.58;;;0.90;;
58842;SDS011;44614;54.356;10.100;2023-05-03T07:08:24;3.33;;;1.00;;
58842;SDS011;44614;54.356;10.100;2023-05-03T07:10:49;7.22;;;1.35;;
58842;SDS011;44614;54.356;10.100;2023-05-03T07:13:14;8.00;;;2.03;;
58842;SDS011;44614;54.356;10.100;2023-05-03T07:15:40;3.50;;;1.15;;
58842;SDS011;44614;54.356;10.100;2023-05-03T07:18:05;4.93;;;1.15;;
58842;SDS011;44614;54.356;10.100;2023-05-03T07:20:31;1.30;;;0.85;;
58842;SDS011;44614;54.356;10.100;2023-05-03T07:22:56;7.78;;;1.02;;
58842;SDS011;44614;54.356;10.100;2023-05-03T07:25:22;2.88;;;1.00;;
58842;SDS011;44614;54.356;10.100;2023-05-03T07:27:47;4.75;;;2.20;;
58842;SDS011;44614;54.356;10.100;2023-05-03T07:30:12;7.55;;;1.60;;
58842;SDS011;44614;54.356;10.100;2023-05-03T07:32:38;5.32;;;0.75;;
58842;SDS011;44614;54.356;10.100;2023-05-03T07:35:04;7.18;;;1.02;;
58842;SDS011;44614;54.356;10.100;2023-05-03T07:37:29;2.13;;;0.70;;
58842;SDS011;44614;54.356;10.100;2023-05-03T07:39:55;6.15;;;1.02;;
58842;SDS011;44614;54.356;10.100;2023-05-03T07:42:20;1.83;;;0.57;;
58842;SDS011;44614;54.356;10.100;2023-05-03T07:44:46;1.08;;;0.93;;
58842;SDS011;44614;54.356;10.100;2023-05-03T07:47:11;4.20;;;1.47;;
58842;SDS011;44614;54.356;10.100;2023-05-03T07:49:36;6.53;;;1.00;;
58842;SDS011;44614;54.356;10.100;2023-05-03T07:52:02;7.30;;;1.30;;
58842;SDS011;44614;54.356;10.100;2023-05-03T07:54:27;6.83;;;1.23;;
58842;SDS011;44614;54.356;10.100;2023-05-03T07:56:53;7.18;;;1.23;;
58842;SDS011;44614;54.356;10.100;2023-05-03T07:59:18;8.77;;;1.13;;
58842;SDS011;44614;54.356;10.100;2023-05-03T08:01:43;2.80;;;0.75;;
58842;SDS011;44614;54.356;10.100;2023-05-03T08:04:08;1.85;;;1.00;;
58842;SDS011;44614;54.356;10.100;2023-05-03T08:06:34;4.05;;;1.33;;
58842;SDS011;44614;54.356;10.100;2023-05-03T08:08:59;3.00;;;2.43;;
58842;SDS011;44614;54.356;10.100;2023-05-03T08:11:26;4.70;;;0.88;;
58842;SDS011;44614;54.356;10.100;2023-05-03T08:13:52;7.20;;;1.30;;
58842;SDS011;44614;54.356;10.100;2023-05-03T08:16:17;1.60;;;0.80;;
58842;SDS011;44614;54.356;10.100;2023-05-03T08:18:43;4.77;;;0.97;;
58842;SDS011;44614;54.356;10.100;2023-05-03T08:21:09;3.45;;;0.90;;
58842;SDS011;44614;54.356;10.100;2023-05-03T08:23:36;4.57;;;0.77;;
58842;SDS011;44614;54.356;10.100;2023-05-03T08:26:01;1.30;;;0.87;;
58842;SDS011;44614;54.356;10.100;2023-05-03T08:28:28;4.30;;;1.10;;
58842;SDS011;44614;54.356;10.100;2023-05-03T08:30:54;2.13;;;0.80;;
58842;SDS011;44614;54.356;10.100;2023-05-03T08:33:20;3.47;;;1.13;;
58842;SDS011;44614;54.356;10.100;2023-05-03T08:35:46;3.17;;;0.77;;
58842;SDS011;44614;54.356;10.100;2023-05-03T08:38:11;5.67;;;1.17;;
58842;SDS011;44614;54.356;10.100;2023-05-03T08:40:37;2.10;;;1.15;;
58842;SDS011;44614;54.356;10.100;2023-05-03T08:43:08;7.80;;;1.40;;
58842;SDS011;44614;54.356;10.100;2023-05-03T08:45:34;7.15;;;1.48;;
58842;SDS011;44614;54.356;10.100;2023-05-03T08:47:59;1.35;;;0.77;;
58842;SDS011;44614;54.356;10.100;2023-05-03T08:50:28;3.50;;;0.95;;
58842;SDS011;44614;54.356;10.100;2023-05-03T08:52:54;4.72;;;1.35;;
58842;SDS011;44614;54.356;10.100;2023-05-03T08:55:20;3.03;;;1.25;;
58842;SDS011;44614;54.356;10.100;2023-05-03T08:57:46;2.73;;;1.03;;
58842;SDS011;44614;54.356;10.100;2023-05-03T09:00:11;3.70;;;0.75;;
58842;SDS011;44614;54.356;10.100;2023-05-03T09:02:38;5.82;;;0.98;;
58842;SDS011;44614;54.356;10.100;2023-05-03T09:07:39;4.07;;;1.30;;
58842;SDS011;44614;54.356;10.100;2023-05-03T09:10:16;1.77;;;0.60;;
58842;SDS011;44614;54.356;10.100;2023-05-03T09:12:47;2.47;;;0.60;;
58842;SDS011;44614;54.356;10.100;2023-05-03T09:15:19;2.65;;;1.05;;
58842;SDS011;44614;54.356;10.100;2023-05-03T09:17:52;5.38;;;0.82;;
58842;SDS011;44614;54.356;10.100;2023-05-03T09:20:34;4.03;;;1.10;;
58842;SDS011;44614;54.356;10.100;2023-05-03T09:23:00;1.77;;;0.93;;
58842;SDS011;44614;54.356;10.100;2023-05-03T09:25:38;5.88;;;1.35;;
58842;SDS011;44614;54.356;10.100;2023-05-03T09:28:16;3.28;;;0.77;;
58842;SDS011;44614;54.356;10.100;2023-05-03T09:30:43;2.88;;;0.68;;
58842;SDS011;44614;54.356;10.100;2023-05-03T09:33:09;4.38;;;0.88;;
58842;SDS011;44614;54.356;10.100;2023-05-03T09:35:36;7.45;;;1.52;;
58842;SDS011;44614;54.356;10.100;2023-05-03T09:38:02;3.80;;;1.33;;
58842;SDS011;44614;54.356;10.100;2023-05-03T09:40:27;2.95;;;1.00;;
58842;SDS011;44614;54.356;10.100;2023-05-03T09:43:11;2.70;;;0.90;;
58842;SDS011;44614;54.356;10.100;2023-05-03T09:45:38;5.10;;;1.00;;
58842;SDS011;44614;54.356;10.100;2023-05-03T09:48:04;4.87;;;0.93;;
58842;SDS011;44614;54.356;10.100;2023-05-03T09:50:34;5.82;;;1.20;;
58842;SDS011;44614;54.356;10.100;2023-05-03T09:53:01;3.58;;;1.15;;
58842;SDS011;44614;54.356;10.100;2023-05-03T09:55:34;2.78;;;0.93;;
58842;SDS011;44614;54.356;10.100;2023-05-03T09:58:03;4.03;;;1.10;;
58842;SDS011;44614;54.356;10.100;2023-05-03T10:00:39;7.90;;;1.05;;
58842;SDS011;44614;54.356;10.100;2023-05-03T10:03:07;4.15;;;0.93;;
58842;SDS011;44614;54.356;10.100;2023-05-03T10:05:47;3.95;;;1.20;;
58842;SDS011;44614;54.356;10.100;2023-05-03T10:08:17;5.55;;;1.42;;
58842;SDS011;44614;54.356;10.100;2023-05-03T10:10:50;4.15;;;1.50;;
58842;SDS011;44614;54.356;10.100;2023-05-03T10:13:19;1.92;;;1.20;;
58842;SDS011;44614;54.356;10.100;2023-05-03T10:15:47;3.78;;;1.25;;
58842;SDS011;44614;54.356;10.100;2023-05-03T10:18:17;7.25;;;1.63;;
58842;SDS011;44614;54.356;10.100;2023-05-03T10:20:49;3.55;;;0.80;;
58842;SDS011;44614;54.356;10.100;2023-05-03T10:23:20;4.35;;;1.00;;
58842;SDS011;44614;54.356;10.100;2023-05-03T10:28:31;4.75;;;1.00;;
58842;SDS011;44614;54.356;10.100;2023-05-03T10:30:57;2.75;;;1.10;;
58842;SDS011;44614;54.356;10.100;2023-05-03T10:33:32;3.83;;;0.70;;
58842;SDS011;44614;54.356;10.100;2023-05-03T10:36:04;2.05;;;0.98;;
58842;SDS011;44614;54.356;10.100;2023-05-03T10:38:31;5.68;;;1.10;;
58842;SDS011;44614;54.356;10.100;2023-05-03T10:40:57;5.53;;;1.23;;
58842;SDS011;44614;54.356;10.100;2023-05-03T10:48:22;5.70;;;1.40;;
58842;SDS011;44614;54.356;10.100;2023-05-03T10:50:48;7.23;;;1.63;;
58842;SDS011;44614;54.356;10.100;2023-05-03T10:58:31;4.13;;;1.27;;
58842;SDS011;44614;54.356;10.100;2023-05-03T11:01:01;4.55;;;1.60;;
58842;SDS011;44614;54.356;10.100;2023-05-03T11:03:32;3.95;;;1.08;;
58842;SDS011;44614;54.356;10.100;2023-05-03T11:06:02;3.20;;;1.17;;
58842;SDS011;44614;54.356;10.100;2023-05-03T11:08:28;11.97;;;2.60;;
58842;SDS011;44614;54.356;10.100;2023-05-03T11:10:56;3.88;;;1.20;;
58842;SDS011;44614;54.356;10.100;2023-05-03T11:13:26;4.30;;;1.33;;
58842;SDS011;44614;54.356;10.100;2023-05-03T11:15:52;2.97;;;1.07;;
58842;SDS011;44614;54.356;10.100;2023-05-03T11:18:21;3.55;;;1.27;;
58842;SDS011;44614;54.356;10.100;2023-05-03T11:20:50;2.17;;;0.82;;
58842;SDS011;44614;54.356;10.100;2023-05-03T11:23:17;5.60;;;1.40;;
58842;SDS011;44614;54.356;10.100;2023-05-03T11:25:43;4.30;;;1.10;;
58842;SDS011;44614;54.356;10.100;2023-05-03T11:28:08;1.60;;;0.80;;
58842;SDS011;44614;54.356;10.100;2023-05-03T11:30:34;2.37;;;1.20;;
58842;SDS011;44614;54.356;10.100;2023-05-03T11:35:29;5.45;;;1.02;;
58842;SDS011;44614;54.356;10.100;2023-05-03T11:37:56;7.00;;;1.15;;
58842;SDS011;44614;54.356;10.100;2023-05-03T11:40:21;5.07;;;1.27;;
58842;SDS011;44614;54.356;10.100;2023-05-03T11:42:50;3.43;;;1.57;;
58842;SDS011;44614;54.356;10.100;2023-05-03T11:45:17;8.15;;;1.38;;
58842;SDS011;44614;54.356;10.100;2023-05-03T11:47:45;6.50;;;1.20;;
58842;SDS011;44614;54.356;10.100;2023-05-03T11:50:11;0.90;;;0.80;;
58842;SDS011;44614;54.356;10.100;2023-05-03T11:52:36;4.73;;;1.30;;
58842;SDS011;44614;54.356;10.100;2023-05-03T11:57:30;4.40;;;1.17;;
58842;SDS011;44614;54.356;10.100;2023-05-03T12:00:08;8.05;;;1.48;;
58842;SDS011;44614;54.356;10.100;2023-05-03T12:02:41;2.90;;;1.10;;
58842;SDS011;44614;54.356;10.100;2023-05-03T12:05:07;5.05;;;1.20;;
58842;SDS011;44614;54.356;10.100;2023-05-03T12:07:33;4.07;;;0.90;;
58842;SDS011;44614;54.356;10.100;2023-05-03T12:09:59;3.93;;;1.13;;
58842;SDS011;44614;54.356;10.100;2023-05-03T12:12:26;1.98;;;1.20;;
58842;SDS011;44614;54.356;10.100;2023-05-03T12:14:58;3.63;;;1.33;;
58842;SDS011;44614;54.356;10.100;2023-05-03T12:17:37;10.38;;;1.50;;
58842;SDS011;44614;54.356;10.100;2023-05-03T12:20:13;5.38;;;1.35;;
58842;SDS011;44614;54.356;10.100;2023-05-03T12:22:46;2.60;;;0.90;;
58842;SDS011;44614;54.356;10.100;2023-05-03T12:25:13;7.35;;;1.10;;
58842;SDS011;44614;54.356;10.100;2023-05-03T12:27:38;2.73;;;1.30;;
58842;SDS011;44614;54.356;10.100;2023-05-03T12:30:04;2.37;;;1.30;;
58842;SDS011;44614;54.356;10.100;2023-05-03T12:32:30;3.58;;;1.35;;
58842;SDS011;44614;54.356;10.100;2023-05-03T12:34:55;5.17;;;1.57;;
58842;SDS011;44614;54.356;10.100;2023-05-03T12:37:21;7.40;;;1.43;;
58842;SDS011;44614;54.356;10.100;2023-05-03T12:39:46;3.70;;;1.23;;
58842;SDS011;44614;54.356;10.100;2023-05-03T12:42:11;5.30;;;1.33;;
58842;SDS011;44614;54.356;10.100;2023-05-03T12:44:40;3.83;;;1.33;;
58842;SDS011;44614;54.356;10.100;2023-05-03T12:47:06;3.97;;;1.33;;
58842;SDS011;44614;54.356;10.100;2023-05-03T12:49:31;6.87;;;1.30;;
58842;SDS011;44614;54.356;10.100;2023-05-03T12:51:56;6.10;;;1.53;;
58842;SDS011;44614;54.356;10.100;2023-05-03T12:54:24;4.72;;;1.38;;
58842;SDS011;44614;54.356;10.100;2023-05-03T12:56:50;3.87;;;0.97;;
58842;SDS011;44614;54.356;10.100;2023-05-03T12:59:15;2.10;;;1.07;;
58842;SDS011;44614;54.356;10.100;2023-05-03T13:01:41;5.17;;;1.20;;
58842;SDS011;44614;54.356;10.100;2023-05-03T13:04:06;2.40;;;1.27;;
58842;SDS011;44614;54.356;10.100;2023-05-03T13:06:32;3.83;;;1.23;;
58842;SDS011;44614;54.356;10.100;2023-05-03T13:08:57;1.80;;;1.00;;
58842;SDS011;44614;54.356;10.100;2023-05-03T13:11:23;2.53;;;1.23;;
58842;SDS011;44614;54.356;10.100;2023-05-03T13:13:50;2.40;;;0.93;;
58842;SDS011;44614;54.356;10.100;2023-05-03T13:16:16;5.68;;;1.50;;
58842;SDS011;44614;54.356;10.100;2023-05-03T13:18:43;3.17;;;1.00;;
58842;SDS011;44614;54.356;10.100;2023-05-03T13:21:09;8.83;;;1.70;;
58842;SDS011;44614;54.356;10.100;2023-05-03T13:23:36;6.97;;;1.42;;
58842;SDS011;44614;54.356;10.100;2023-05-03T13:26:01;2.13;;;1.03;;
58842;SDS011;44614;54.356;10.100;2023-05-03T13:28:26;4.63;;;1.20;;
58842;SDS011;44614;54.356;10.100;2023-05-03T13:30:52;6.17;;;1.63;;
58842;SDS011;44614;54.356;10.100;2023-05-03T13:33:17;7.87;;;1.53;;
58842;SDS011;44614;54.356;10.100;2023-05-03T13:35:43;4.00;;;1.33;;
58842;SDS011;44614;54.356;10.100;2023-05-03T13:38:08;3.90;;;1.40;;
58842;SDS011;44614;54.356;10.100;2023-05-03T13:40:33;7.30;;;1.67;;
58842;SDS011;44614;54.356;10.100;2023-05-03T13:42:59;2.07;;;1.17;;
58842;SDS011;44614;54.356;10.100;2023-05-03T13:45:24;5.50;;;1.47;;
58842;SDS011;44614;54.356;10.100;2023-05-03T13:47:49;3.77;;;1.37;;
58842;SDS011;44614;54.356;10.100;2023-05-03T13:50:15;6.03;;;1.00;;
58842;SDS011;44614;54.356;10.100;2023-05-03T13:52:40;5.07;;;1.30;;
58842;SDS011;44614;54.356;10.100;2023-05-03T13:55:06;5.23;;;1.63;;
58842;SDS011;44614;54.356;10.100;2023-05-03T13:57:32;5.63;;;1.50;;
58842;SDS011;44614;54.356;10.100;2023-05-03T13:59:57;4.63;;;1.33;;
58842;SDS011;44614;54.356;10.100;2023-05-03T14:02:23;9.33;;;1.23;;
58842;SDS011;44614;54.356;10.100;2023-05-03T14:04:48;3.77;;;1.23;;
58842;SDS011;44614;54.356;10.100;2023-05-03T14:07:14;3.27;;;1.40;;
58842;SDS011;44614;54.356;10.100;2023-05-03T14:09:39;2.00;;;1.37;;
58842;SDS011;44614;54.356;10.100;2023-05-03T14:12:05;4.20;;;1.97;;
58842;SDS011;44614;54.356;10.100;2023-05-03T14:14:31;1.15;;;0.75;;
58842;SDS011;44614;54.356;10.100;2023-05-03T14:16:57;6.55;;;1.63;;
58842;SDS011;44614;54.356;10.100;2023-05-03T14:19:23;3.83;;;1.23;;
58842;SDS011;44614;54.356;10.100;2023-05-03T14:21:48;3.37;;;1.17;;
58842;SDS011;44614;54.356;10.100;2023-05-03T14:24:15;4.57;;;1.23;;
58842;SDS011;44614;54.356;10.100;2023-05-03T14:26:40;3.40;;;1.67;;
58842;SDS011;44614;54.356;10.100;2023-05-03T14:29:06;3.73;;;1.27;;
58842;SDS011;44614;54.356;10.100;2023-05-03T14:31:32;4.23;;;1.30;;
58842;SDS011;44614;54.356;10.100;2023-05-03T14:33:57;4.82;;;1.75;;
58842;SDS011;44614;54.356;10.100;2023-05-03T14:36:26;3.70;;;1.40;;
58842;SDS011;44614;54.356;10.100;2023-05-03T14:38:58;2.05;;;0.93;;
58842;SDS011;44614;54.356;10.100;2023-05-03T14:41:25;5.60;;;1.33;;
58842;SDS011;44614;54.356;10.100;2023-05-03T14:43:50;1.30;;;0.90;;
58842;SDS011;44614;54.356;10.100;2023-05-03T14:46:16;3.73;;;1.50;;
58842;SDS011;44614;54.356;10.100;2023-05-03T14:48:41;4.07;;;1.40;;
58842;SDS011;44614;54.356;10.100;2023-05-03T14:51:06;5.10;;;1.30;;
58842;SDS011;44614;54.356;10.100;2023-05-03T14:53:32;2.40;;;1.10;;
58842;SDS011;44614;54.356;10.100;2023-05-03T14:55:57;1.33;;;1.00;;